Time;durP1;ratioP1;P1;durP2;ratioP2;P2;SDS_P1;SDS_P2;PMS_P1;PMS_P2;Temp;Humidity;BMP_temperature;BMP_pressure;BME280_temperature;BME280_humidity;BME280_pressure;Samples;Min_cycle;Max_cycle;Signal;HPM_P1;HPM_P2
2023/01/20 00:01:04;;;;;;;13.82;5.93;;;;;;;-3.48;100.00;94697.75;4967089;28;20039;-75
2023/01/20 00:03:32;;;;;;;15.20;6.30;;;;;;;-3.44;100.00;94704.09;4959936;28;20050;-73
2023/01/20 00:05:58;;;;;;;16.13;5.75;;;;;;;-3.45;100.00;94705.06;4958351;28;20109;-75
2023/01/20 00:08:24;;;;;;;11.15;5.10;;;;;;;-3.45;100.00;94707.66;4960477;28;20420;-75
2023/01/20 00:10:49;;;;;;;14.25;5.63;;;;;;;-3.41;100.00;94713.97;4962184;28;20047;-75
2023/01/20 00:13:15;;;;;;;11.52;5.30;;;;;;;-3.42;100.00;94709.84;4963904;28;20038;-75
2023/01/20 00:15:40;;;;;;;11.82;5.28;;;;;;;-3.41;100.00;94713.97;4958857;28;20062;-75
2023/01/20 00:18:06;;;;;;;15.75;5.63;;;;;;;-3.44;100.00;94709.25;4959047;28;20053;-74
2023/01/20 00:20:31;;;;;;;13.88;6.05;;;;;;;-3.47;100.00;94719.94;4961774;28;20086;-75
2023/01/20 00:22:57;;;;;;;12.95;5.25;;;;;;;-3.43;100.00;94715.97;4959426;28;20034;-74
2023/01/20 00:25:22;;;;;;;11.63;4.75;;;;;;;-3.38;100.00;94717.94;4965716;28;20039;-74
2023/01/20 00:27:52;;;;;;;17.00;6.25;;;;;;;-3.39;100.00;94717.16;4974135;28;20065;-75
2023/01/20 00:30:17;;;;;;;9.75;4.85;;;;;;;-3.39;100.00;94727.44;4977063;28;20046;-75
2023/01/20 00:32:44;;;;;;;13.73;5.72;;;;;;;-3.43;100.00;94721.13;4970148;28;20516;-75
2023/01/20 00:35:13;;;;;;;12.77;4.95;;;;;;;-3.46;100.00;94721.53;4981970;28;20047;-74
2023/01/20 00:37:39;;;;;;;10.70;5.10;;;;;;;-3.49;100.00;94722.72;4972683;28;20051;-74
2023/01/20 00:40:05;;;;;;;9.88;4.28;;;;;;;-3.49;100.00;94719.34;4971531;28;20460;-74
2023/01/20 00:42:31;;;;;;;12.70;4.78;;;;;;;-3.46;100.00;94725.84;4972338;28;20065;-75
2023/01/20 00:44:56;;;;;;;9.63;4.57;;;;;;;-3.47;100.00;94729.44;4969119;28;20492;-73
2023/01/20 00:47:22;;;;;;;9.15;4.75;;;;;;;-3.44;100.00;94729.03;4970521;28;20042;-75
2023/01/20 00:49:48;;;;;;;12.45;4.78;;;;;;;-3.42;100.00;94727.84;4964125;28;20035;-74
2023/01/20 00:52:14;;;;;;;12.55;5.03;;;;;;;-3.36;100.00;94732.19;4960306;28;20043;-75
2023/01/20 00:54:40;;;;;;;9.60;4.40;;;;;;;-3.32;100.00;94728.22;4964162;28;20086;-74
2023/01/20 00:57:05;;;;;;;7.47;4.05;;;;;;;-3.40;100.00;94730.22;4962765;28;20137;-75
2023/01/20 00:59:31;;;;;;;12.07;5.00;;;;;;;-3.31;100.00;94734.94;4963019;28;20070;-75
2023/01/20 01:01:57;;;;;;;11.60;4.70;;;;;;;-3.31;100.00;94740.06;4970393;28;20051;-74
2023/01/20 01:04:22;;;;;;;10.60;4.55;;;;;;;-3.36;100.00;94737.34;4967516;28;20049;-74
2023/01/20 01:06:51;;;;;;;10.30;4.80;;;;;;;-3.35;100.00;94744.06;4962195;28;20042;-74
2023/01/20 01:09:17;;;;;;;10.15;4.53;;;;;;;-3.32;100.00;94743.66;4962367;28;20135;-74
2023/01/20 01:11:42;;;;;;;10.73;4.40;;;;;;;-3.37;100.00;94740.88;4972233;28;20385;-74
2023/01/20 01:14:08;;;;;;;9.98;4.45;;;;;;;-3.36;100.00;94739.91;4964929;28;20039;-74
2023/01/20 01:16:34;;;;;;;9.48;4.53;;;;;;;-3.46;100.00;94742.09;4968075;28;20105;-74
2023/01/20 01:18:59;;;;;;;11.35;4.35;;;;;;;-3.45;100.00;94743.66;4963767;28;20492;-75
2023/01/20 01:21:25;;;;;;;11.50;5.70;;;;;;;-3.49;100.00;94752.81;4961570;28;20047;-74
2023/01/20 01:23:52;;;;;;;17.30;5.28;;;;;;;-3.37;100.00;94755.53;4963337;28;20039;-74
2023/01/20 01:26:17;;;;;;;10.85;4.38;;;;;;;-3.48;100.00;94749.22;4962082;28;20038;-74
2023/01/20 01:28:46;;;;;;;9.07;4.43;;;;;;;-3.41;100.00;94750.00;4963054;28;20098;-74
2023/01/20 01:31:12;;;;;;;15.27;4.55;;;;;;;-3.43;100.00;94757.13;4960721;28;20089;-74
2023/01/20 01:33:38;;;;;;;9.07;3.88;;;;;;;-3.44;100.00;94747.81;4975183;28;21720;-74
2023/01/20 01:36:04;;;;;;;11.27;5.30;;;;;;;-3.43;100.00;94757.13;4962992;28;20049;-74
2023/01/20 01:38:30;;;;;;;10.32;4.50;;;;;;;-3.47;100.00;94755.94;4963155;28;20133;-75
2023/01/20 01:40:56;;;;;;;13.38;4.47;;;;;;;-3.46;100.00;94767.84;4966758;28;20074;-74
2023/01/20 01:43:30;;;;;;;11.30;4.57;;;;;;;-3.47;100.00;94761.09;4969983;28;20038;-74
2023/01/20 01:45:57;;;;;;;9.00;3.92;;;;;;;-3.53;100.00;94761.91;4971954;28;20105;-74
2023/01/20 01:48:26;;;;;;;8.70;4.30;;;;;;;-3.49;100.00;94757.94;4969104;28;20046;-74
2023/01/20 01:50:57;;;;;;;7.45;4.25;;;;;;;-3.52;100.00;94758.31;4960857;28;20504;-74
2023/01/20 01:53:25;;;;;;;10.57;4.70;;;;;;;-3.66;100.00;94753.19;4960661;28;20042;-74
2023/01/20 01:55:57;;;;;;;7.75;3.88;;;;;;;-3.73;100.00;94757.56;4962594;28;20043;-75
2023/01/20 01:58:30;;;;;;;11.43;4.90;;;;;;;-3.74;100.00;94755.97;4961411;28;20046;-74
2023/01/20 02:00:55;;;;;;;11.15;4.78;;;;;;;-3.78;100.00;94759.13;4976785;28;20047;-75
2023/01/20 02:03:21;;;;;;;8.32;4.40;;;;;;;-3.80;100.00;94761.91;4962374;28;20039;-75
2023/01/20 02:05:51;;;;;;;13.55;4.28;;;;;;;-3.82;100.00;94758.75;4962161;28;20046;-75
2023/01/20 02:08:17;;;;;;;11.02;4.63;;;;;;;-3.91;100.00;94759.91;4960068;28;20049;-74
2023/01/20 02:10:43;;;;;;;12.60;4.60;;;;;;;-3.88;100.00;94762.09;4976329;28;20520;-74
2023/01/20 02:13:08;;;;;;;10.25;4.38;;;;;;;-3.78;100.00;94764.28;4959901;28;20043;-73
2023/01/20 02:15:43;;;;;;;10.18;4.70;;;;;;;-3.75;100.00;94763.88;4962032;28;20058;-74
2023/01/20 02:18:41;;;;;;;11.52;4.35;;;;;;;-3.76;100.00;94765.66;4978598;28;21688;-74
2023/01/20 02:21:28;;;;;;;10.68;4.68;;;;;;;-3.66;100.00;94768.63;4970667;28;20061;-74
2023/01/20 02:23:53;;;;;;;8.20;4.47;;;;;;;-3.75;100.00;94769.81;4960127;28;20066;-73
2023/01/20 02:26:38;;;;;;;9.88;4.63;;;;;;;-3.85;100.00;94769.41;4960412;28;20073;-74
2023/01/20 02:29:22;;;;;;;10.48;4.38;;;;;;;-3.88;100.00;94765.47;4962403;28;20118;-75
2023/01/20 02:32:07;;;;;;;12.60;4.50;;;;;;;-3.92;100.00;94768.59;4963031;28;20050;-73
2023/01/20 02:34:42;;;;;;;11.40;4.72;;;;;;;-4.00;100.00;94765.25;4960128;28;20513;-73
2023/01/20 02:37:43;;;;;;;11.45;4.40;;;;;;;-4.01;100.00;94771.38;4961502;28;20428;-73
2023/01/20 02:40:15;;;;;;;13.45;4.70;;;;;;;-4.00;100.00;94772.94;4920203;29;20054;-74
2023/01/20 02:42:54;;;;;;;10.07;3.95;;;;;;;-3.93;100.00;94777.31;4950028;28;20072;-72
2023/01/20 02:45:31;;;;;;;10.10;4.25;;;;;;;-3.94;100.00;94780.88;4976175;28;20121;-73
2023/01/20 02:48:07;;;;;;;10.82;4.50;;;;;;;-3.83;100.00;94772.59;4960134;28;20043;-74
2023/01/20 02:50:48;;;;;;;8.05;4.22;;;;;;;-3.81;100.00;94783.44;4959812;28;20493;-73
2023/01/20 02:53:16;;;;;;;9.82;4.50;;;;;;;-3.84;100.00;94783.84;4962686;28;20038;-71
2023/01/20 02:55:47;;;;;;;11.88;4.78;;;;;;;-3.87;100.00;94784.25;4960282;28;20050;-74
2023/01/20 02:58:18;;;;;;;9.07;4.72;;;;;;;-3.80;100.00;94782.47;4961843;28;20047;-74
2023/01/20 03:00:54;;;;;;;11.38;4.65;;;;;;;-3.78;100.00;94785.63;4958509;28;20054;-73
2023/01/20 03:03:25;;;;;;;10.63;4.72;;;;;;;-3.63;100.00;94792.34;4963726;28;20050;-73
2023/01/20 03:05:56;;;;;;;18.60;4.78;;;;;;;-3.56;100.00;94788.00;4961861;28;20043;-75
2023/01/20 03:08:25;;;;;;;10.30;4.78;;;;;;;-3.69;100.00;94789.59;4961296;28;20046;-74
2023/01/20 03:10:53;;;;;;;7.43;4.40;;;;;;;-3.61;100.00;94795.53;4962383;28;20066;-75
2023/01/20 03:13:32;;;;;;;12.05;4.55;;;;;;;-3.60;100.00;94797.13;4963941;28;20489;-75
2023/01/20 03:16:10;;;;;;;10.20;4.63;;;;;;;-3.70;100.00;94798.28;4982880;28;20062;-75
2023/01/20 03:18:38;;;;;;;8.77;4.40;;;;;;;-3.81;100.00;94796.31;4963082;28;20050;-75
2023/01/20 03:21:06;;;;;;;10.43;4.88;;;;;;;-3.81;100.00;94792.94;4961198;28;20043;-75
2023/01/20 03:23:39;;;;;;;13.02;4.55;;;;;;;-3.83;100.00;94798.28;4959631;28;20047;-76
2023/01/20 03:26:08;;;;;;;9.27;4.38;;;;;;;-3.77;100.00;94801.84;4961364;28;20120;-75
2023/01/20 03:28:34;;;;;;;9.35;4.55;;;;;;;-3.66;100.00;94804.63;4959991;28;20049;-76
2023/01/20 03:31:05;;;;;;;8.30;4.28;;;;;;;-3.60;100.00;94807.41;4959860;28;20042;-75
2023/01/20 03:33:32;;;;;;;10.35;4.47;;;;;;;-3.54;100.00;94806.59;4959834;28;20047;-76
2023/01/20 03:35:57;;;;;;;14.65;5.13;;;;;;;-3.58;100.00;94805.41;4961593;28;20049;-76
2023/01/20 03:38:23;;;;;;;9.68;4.75;;;;;;;-3.54;100.00;94806.59;4959634;28;20043;-75
2023/01/20 03:41:12;;;;;;;9.30;4.72;;;;;;;-3.53;100.00;94808.19;4962252;28;20043;-75
2023/01/20 03:43:51;;;;;;;12.68;5.13;;;;;;;-3.45;100.00;94809.78;4959974;28;20046;-75
2023/01/20 03:46:29;;;;;;;13.38;4.63;;;;;;;-3.43;100.00;94818.88;4961266;28;20090;-76
2023/01/20 03:49:42;;;;;;;11.00;4.72;;;;;;;-3.44;100.00;94825.00;4960353;28;20041;-76
2023/01/20 03:52:21;;;;;;;12.10;4.55;;;;;;;-3.26;100.00;94824.41;4940775;28;20063;-76
2023/01/20 03:54:56;;;;;;;12.27;5.45;;;;;;;-3.41;100.00;94827.19;4959276;28;20079;-75
2023/01/20 03:57:28;;;;;;;9.82;4.45;;;;;;;-3.46;100.00;94829.56;4964015;28;20050;-75
2023/01/20 03:59:55;;;;;;;10.93;4.65;;;;;;;-3.43;100.00;94836.88;4963122;28;20047;-76
2023/01/20 04:02:22;;;;;;;13.30;4.13;;;;;;;-3.39;100.00;94840.66;4980048;28;20489;-76
2023/01/20 04:04:48;;;;;;;12.25;5.10;;;;;;;-3.36;100.00;94839.44;4964044;28;20035;-76
2023/01/20 04:07:19;;;;;;;9.77;4.68;;;;;;;-3.40;100.00;94849.34;4967435;28;20140;-75
2023/01/20 04:09:51;;;;;;;7.88;4.60;;;;;;;-3.36;100.00;94845.41;4964918;28;20187;-75
2023/01/20 04:12:16;;;;;;;10.32;4.63;;;;;;;-3.33;100.00;94845.00;4977714;28;20035;-75
2023/01/20 04:14:42;;;;;;;10.30;4.22;;;;;;;-3.22;100.00;94840.22;4962095;28;20050;-75
2023/01/20 04:17:08;;;;;;;9.65;4.75;;;;;;;-3.32;100.00;94851.72;4966493;28;20047;-76
2023/01/20 04:19:34;;;;;;;8.48;4.72;;;;;;;-3.26;100.00;94849.34;4962192;28;20461;-74
2023/01/20 04:22:16;;;;;;;10.60;4.53;;;;;;;-3.27;100.00;94843.41;4962454;28;20074;-76
2023/01/20 04:24:48;;;;;;;13.02;5.18;;;;;;;-3.16;100.00;94844.56;4966914;28;20043;-75
2023/01/20 04:27:13;;;;;;;10.88;5.07;;;;;;;-3.15;100.00;94846.16;4969929;28;20066;-75
2023/01/20 04:29:40;;;;;;;12.48;4.68;;;;;;;-3.06;100.00;94855.28;4989596;28;20058;-75
2023/01/20 04:32:06;;;;;;;11.98;5.05;;;;;;;-3.09;100.00;94854.88;4974769;28;20097;-75
2023/01/20 04:34:32;;;;;;;15.07;5.45;;;;;;;-3.12;100.00;94861.19;4969765;28;20058;-74
2023/01/20 04:36:57;;;;;;;13.75;5.57;;;;;;;-3.21;100.00;94865.00;4965941;28;20034;-75
2023/01/20 04:39:23;;;;;;;13.85;5.75;;;;;;;-3.22;100.00;94868.53;4971220;28;20117;-74
2023/01/20 04:41:48;;;;;;;14.63;4.82;;;;;;;-3.15;100.00;94871.91;4974528;28;20047;-74
2023/01/20 04:44:14;;;;;;;9.45;4.95;;;;;;;-3.11;100.00;94873.09;4970585;28;20047;-73
2023/01/20 04:46:40;;;;;;;10.73;4.97;;;;;;;-3.15;100.00;94874.47;4970336;28;20106;-74
2023/01/20 04:49:05;;;;;;;10.43;5.20;;;;;;;-3.16;100.00;94880.59;4970999;28;20031;-75
2023/01/20 04:51:32;;;;;;;10.73;5.15;;;;;;;-3.20;100.00;94889.75;4971007;28;20460;-74
2023/01/20 04:53:59;;;;;;;13.25;5.20;;;;;;;-3.08;100.00;94883.00;4966271;28;20661;-73
2023/01/20 04:56:25;;;;;;;11.43;5.47;;;;;;;-3.06;100.00;94886.16;4969611;28;20101;-74
2023/01/20 04:58:51;;;;;;;11.38;5.22;;;;;;;-3.05;100.00;94887.72;4980714;28;20046;-73
2023/01/20 05:01:16;;;;;;;12.38;5.70;;;;;;;-3.17;100.00;94889.34;4967183;28;20497;-73
2023/01/20 05:03:42;;;;;;;12.98;5.65;;;;;;;-3.11;100.00;94888.53;4969625;28;20519;-73
2023/01/20 05:06:09;;;;;;;15.80;6.13;;;;;;;-3.05;100.00;94887.72;4968028;28;20042;-73
2023/01/20 05:08:35;;;;;;;13.60;5.55;;;;;;;-3.14;100.00;94894.88;4971765;28;20405;-73
2023/01/20 05:11:01;;;;;;;13.00;5.97;;;;;;;-3.15;100.00;94905.38;4971674;28;20039;-73
2023/01/20 05:13:27;;;;;;;15.52;6.00;;;;;;;-3.15;100.00;94907.94;4973165;28;20035;-74
2023/01/20 05:15:53;;;;;;;13.20;6.05;;;;;;;-3.13;100.00;94905.97;4972092;28;20113;-73
2023/01/20 05:18:18;;;;;;;10.88;5.53;;;;;;;-3.26;100.00;94911.09;4971187;28;20144;-73
2023/01/20 05:20:46;;;;;;;11.20;5.78;;;;;;;-3.20;100.00;94915.47;4967893;28;20093;-72
2023/01/20 05:23:12;;;;;;;15.85;6.43;;;;;;;-3.28;100.00;94915.66;4970748;28;20042;-71
2023/01/20 05:25:37;;;;;;;14.73;6.20;;;;;;;-3.31;100.00;94912.47;4973413;28;20046;-72
2023/01/20 05:28:03;;;;;;;14.15;6.18;;;;;;;-3.26;100.00;94916.25;4968058;28;20065;-72
2023/01/20 05:30:28;;;;;;;16.42;6.25;;;;;;;-3.28;100.00;94920.81;4969729;28;20035;-72
2023/01/20 05:32:54;;;;;;;12.13;6.05;;;;;;;-3.17;100.00;94920.22;4969215;28;20039;-72
2023/01/20 05:35:19;;;;;;;14.20;6.75;;;;;;;-3.21;100.00;94919.03;4965411;28;20441;-72
2023/01/20 05:37:45;;;;;;;12.27;6.13;;;;;;;-3.16;100.00;94926.94;4968463;28;21806;-72
2023/01/20 05:40:11;;;;;;;14.85;6.50;;;;;;;-3.13;100.00;94926.56;4960956;28;20444;-72
2023/01/20 05:42:37;;;;;;;12.70;6.38;;;;;;;-3.15;100.00;94928.53;4978916;28;20039;-72
2023/01/20 05:45:03;;;;;;;16.98;7.10;;;;;;;-3.18;100.00;94928.94;4962370;28;20062;-72
2023/01/20 05:47:29;;;;;;;16.23;7.25;;;;;;;-3.18;100.00;94928.94;4965188;28;20491;-72
2023/01/20 05:49:54;;;;;;;14.35;6.85;;;;;;;-3.16;100.00;94942.38;4970085;28;20039;-73
2023/01/20 05:52:20;;;;;;;17.15;6.88;;;;;;;-3.15;100.00;94938.81;4967184;28;20480;-73
2023/01/20 05:54:45;;;;;;;18.63;8.02;;;;;;;-3.09;100.00;94943.16;4970220;28;20108;-71
2023/01/20 05:57:16;;;;;;;18.08;7.03;;;;;;;-3.10;100.00;94941.59;4969855;28;20042;-72
2023/01/20 05:59:46;;;;;;;18.27;7.90;;;;;;;-3.04;100.00;94945.97;4967015;28;20046;-72
2023/01/20 06:02:14;;;;;;;15.25;7.55;;;;;;;-3.17;100.00;94951.13;4975652;28;20191;-72
2023/01/20 06:04:40;;;;;;;18.50;8.35;;;;;;;-3.20;100.00;94954.88;4976190;28;20520;-72
2023/01/20 06:07:05;;;;;;;21.52;7.90;;;;;;;-3.21;100.00;94949.91;4967295;28;20158;-71
2023/01/20 06:09:31;;;;;;;19.02;8.65;;;;;;;-3.19;100.00;94958.22;4969155;28;20436;-71
2023/01/20 06:11:56;;;;;;;19.75;9.07;;;;;;;-3.15;100.00;94960.22;4962020;28;20057;-72
2023/01/20 06:14:22;;;;;;;20.05;9.35;;;;;;;-3.19;100.00;94958.22;4962564;28;20105;-72
2023/01/20 06:16:49;;;;;;;18.20;9.07;;;;;;;-3.17;100.00;94961.41;4962192;28;20413;-71
2023/01/20 06:19:14;;;;;;;18.17;8.73;;;;;;;-3.13;100.00;94960.03;4963214;28;20046;-72
2023/01/20 06:21:40;;;;;;;19.73;8.93;;;;;;;-3.17;100.00;94962.19;4961040;28;20074;-72
2023/01/20 06:24:05;;;;;;;23.52;8.63;;;;;;;-3.18;100.00;94967.53;4967450;28;20045;-73
2023/01/20 06:26:31;;;;;;;20.48;9.07;;;;;;;-3.18;100.00;94970.88;4960311;28;20642;-72
2023/01/20 06:28:58;;;;;;;19.10;9.02;;;;;;;-3.20;100.00;94977.25;4962386;28;20484;-71
2023/01/20 06:31:24;;;;;;;21.08;8.32;;;;;;;-3.20;100.00;94974.66;4959497;28;20038;-72
2023/01/20 06:33:49;;;;;;;13.95;7.55;;;;;;;-3.20;100.00;94977.25;4960658;28;21839;-72
2023/01/20 06:36:16;;;;;;;18.42;8.93;;;;;;;-3.26;100.00;94978.00;4962296;28;20035;-71
2023/01/20 06:38:47;;;;;;;17.15;7.70;;;;;;;-3.31;100.00;94981.94;4961646;28;20054;-72
2023/01/20 06:41:13;;;;;;;15.98;7.43;;;;;;;-3.31;100.00;94981.94;4959318;28;20039;-72
2023/01/20 06:43:39;;;;;;;21.60;7.75;;;;;;;-3.35;100.00;94985.94;4961661;28;20038;-72
2023/01/20 06:46:07;;;;;;;18.02;7.60;;;;;;;-3.35;100.00;94985.94;4965089;28;20046;-74
2023/01/20 06:48:32;;;;;;;15.68;8.15;;;;;;;-3.36;100.00;94994.63;4960398;28;20132;-71
2023/01/20 06:51:18;;;;;;;22.00;6.70;;;;;;;-3.25;100.00;94995.03;4923759;28;20050;-73
2023/01/20 06:53:44;;;;;;;24.40;10.00;;;;;;;-3.32;100.00;94995.84;4964903;28;20053;-73
2023/01/20 06:56:12;;;;;;;19.48;8.35;;;;;;;-3.33;100.00;95001.97;4960142;28;20051;-74
2023/01/20 06:58:38;;;;;;;20.83;8.32;;;;;;;-3.31;100.00;95006.91;4958650;28;20046;-72
2023/01/20 07:01:10;;;;;;;18.15;7.45;;;;;;;-3.28;100.00;95009.09;4961566;28;20039;-75
2023/01/20 07:03:35;;;;;;;19.83;7.60;;;;;;;-3.34;100.00;95008.09;4959637;28;20054;-72
2023/01/20 07:06:04;;;;;;;19.65;7.35;;;;;;;-3.29;100.00;95014.44;4957484;28;20445;-72
2023/01/20 07:08:30;;;;;;;17.15;6.90;;;;;;;-3.29;100.00;95014.44;4974340;28;20038;-73
2023/01/20 07:10:56;;;;;;;18.67;7.90;;;;;;;-3.36;100.00;95020.34;4958553;28;20042;-74
2023/01/20 07:13:21;;;;;;;16.85;6.80;;;;;;;-3.29;100.00;95019.56;4958549;28;20074;-74
2023/01/20 07:15:47;;;;;;;15.63;7.45;;;;;;;-3.28;100.00;95026.31;4958466;28;20981;-73
2023/01/20 07:18:12;;;;;;;20.55;7.55;;;;;;;-3.26;100.00;95029.47;4967801;28;20045;-73
2023/01/20 07:20:39;;;;;;;18.85;7.30;;;;;;;-3.24;100.00;95032.66;4961774;28;20053;-75
2023/01/20 07:23:04;;;;;;;15.75;7.55;;;;;;;-3.18;100.00;95047.31;4976833;28;20058;-74
2023/01/20 07:25:30;;;;;;;17.95;7.80;;;;;;;-3.15;100.00;95044.34;4959467;28;20050;-76
2023/01/20 07:27:58;;;;;;;16.98;7.85;;;;;;;-3.26;100.00;95044.91;4963874;28;20039;-74
2023/01/20 07:30:24;;;;;;;15.18;7.60;;;;;;;-3.27;100.00;95054.44;4961239;28;20035;-73
2023/01/20 07:32:50;;;;;;;23.50;8.35;;;;;;;-3.26;100.00;95062.94;4962882;28;20050;-75
2023/01/20 07:35:16;;;;;;;20.63;8.07;;;;;;;-3.25;100.00;95065.31;4964968;28;20094;-73
2023/01/20 07:37:41;;;;;;;16.65;7.93;;;;;;;-3.18;100.00;95067.91;4963696;28;20046;-76
2023/01/20 07:40:08;;;;;;;17.23;8.45;;;;;;;-3.18;100.00;95073.84;4964015;28;20057;-74
2023/01/20 07:42:36;;;;;;;17.20;8.25;;;;;;;-3.20;100.00;95075.03;4964273;28;20046;-74
2023/01/20 07:45:03;;;;;;;19.55;8.95;;;;;;;-3.14;100.00;95079.41;4960702;28;20046;-75
2023/01/20 07:47:28;;;;;;;19.90;8.55;;;;;;;-3.10;100.00;95084.94;4966638;28;20039;-75
2023/01/20 07:49:54;;;;;;;16.60;8.05;;;;;;;-3.09;100.00;95086.53;4962046;28;20067;-74
2023/01/20 07:52:19;;;;;;;17.65;9.07;;;;;;;-3.08;100.00;95093.28;4962042;28;20043;-75
2023/01/20 07:54:45;;;;;;;18.55;8.80;;;;;;;-2.99;100.00;95092.91;4963594;28;20066;-75
2023/01/20 07:57:10;;;;;;;18.98;9.07;;;;;;;-3.16;100.00;95096.81;4964117;28;20101;-73
2023/01/20 07:59:36;;;;;;;18.83;8.73;;;;;;;-3.04;100.00;95100.41;4964281;28;20883;-73
2023/01/20 08:02:01;;;;;;;19.48;8.93;;;;;;;-3.07;100.00;95095.66;4966180;28;20046;-76
2023/01/20 08:04:27;;;;;;;24.35;10.52;;;;;;;-3.06;100.00;95102.41;4963921;28;20398;-75
2023/01/20 08:06:52;;;;;;;26.92;9.35;;;;;;;-2.92;100.00;95102.44;4967988;28;20505;-74
2023/01/20 08:09:18;;;;;;;18.60;8.75;;;;;;;-2.86;100.00;95101.66;4963303;28;20505;-75
2023/01/20 08:11:44;;;;;;;22.60;9.75;;;;;;;-3.01;100.00;95110.31;4972071;28;20420;-75
2023/01/20 08:14:09;;;;;;;21.02;9.70;;;;;;;-3.04;100.00;95110.72;4973278;28;20047;-76
2023/01/20 08:16:35;;;;;;;16.52;8.02;;;;;;;-3.06;100.00;95117.84;4966291;28;20058;-74
2023/01/20 08:19:01;;;;;;;21.83;9.60;;;;;;;-3.12;100.00;95103.16;4974063;28;20046;-74
2023/01/20 08:21:29;;;;;;;21.50;9.23;;;;;;;-3.03;100.00;95112.31;4961177;28;20121;-75
2023/01/20 08:23:57;;;;;;;19.83;9.00;;;;;;;-3.09;100.00;95115.66;4964709;28;20050;-74
2023/01/20 08:26:24;;;;;;;20.92;9.20;;;;;;;-2.94;100.00;95117.28;4963966;28;20058;-77
2023/01/20 08:28:50;;;;;;;20.20;9.38;;;;;;;-2.87;100.00;95123.25;4963831;28;20047;-74
2023/01/20 08:31:18;;;;;;;17.27;8.43;;;;;;;-2.86;100.00;95122.25;4965934;28;20039;-75
2023/01/20 08:33:44;;;;;;;18.85;8.80;;;;;;;-2.80;100.00;95124.06;4971003;28;20088;-76
2023/01/20 08:36:20;;;;;;;16.92;8.75;;;;;;;-2.68;100.00;95122.50;4968726;28;20046;-75
2023/01/20 08:38:47;;;;;;;17.63;8.68;;;;;;;-2.81;100.00;95125.03;4983507;28;20527;-75
2023/01/20 08:41:15;;;;;;;18.17;8.50;;;;;;;-2.79;100.00;95128.22;4962759;28;20395;-75
2023/01/20 08:43:41;;;;;;;20.40;8.60;;;;;;;-2.82;100.00;95131.19;4965358;28;20043;-75
2023/01/20 08:46:10;;;;;;;19.65;8.40;;;;;;;-2.82;100.00;95138.91;4968071;28;20046;-75
2023/01/20 08:48:39;;;;;;;17.42;7.32;;;;;;;-2.68;100.00;95150.03;4962654;28;20509;-76
2023/01/20 08:51:07;;;;;;;18.00;8.43;;;;;;;-2.57;100.00;95146.09;4963498;28;20053;-76
2023/01/20 08:53:33;;;;;;;17.40;7.75;;;;;;;-2.71;100.00;95151.22;4977007;28;20094;-76
2023/01/20 08:56:00;;;;;;;15.95;7.35;;;;;;;-2.64;100.00;95151.25;4963646;28;20559;-75
2023/01/20 08:58:27;;;;;;;14.70;7.05;;;;;;;-2.57;100.00;95157.19;4961168;28;20049;-75
2023/01/20 09:00:53;;;;;;;16.25;7.47;;;;;;;-2.53;100.00;95162.75;4963425;28;20039;-76
2023/01/20 09:03:19;;;;;;;20.92;8.45;;;;;;;-2.44;100.00;95156.44;4965130;28;20654;-75
2023/01/20 09:05:45;;;;;;;17.38;8.38;;;;;;;-2.38;100.00;95160.00;4963881;28;20046;-77
2023/01/20 09:08:12;;;;;;;15.30;8.18;;;;;;;-2.46;100.00;95163.56;4961949;28;20555;-75
2023/01/20 09:10:37;;;;;;;17.77;7.57;;;;;;;-2.43;100.00;95168.31;4961506;28;20042;-75
2023/01/20 09:13:03;;;;;;;14.93;7.05;;;;;;;-2.41;100.00;95163.78;4961854;28;20568;-74
2023/01/20 09:15:29;;;;;;;17.17;6.90;;;;;;;-2.39;100.00;95174.66;4956166;28;20117;-74
2023/01/20 09:17:54;;;;;;;16.85;7.45;;;;;;;-2.37;100.00;95175.28;4961233;28;20071;-75
2023/01/20 09:20:20;;;;;;;18.63;7.43;;;;;;;-2.33;100.00;95179.06;4962267;28;20062;-75
2023/01/20 09:22:46;;;;;;;19.48;7.07;;;;;;;-2.37;100.00;95180.44;4967232;28;20545;-74
2023/01/20 09:25:11;;;;;;;12.80;5.40;;;;;;;-2.34;100.00;95181.78;4965693;28;20043;-76
2023/01/20 09:27:37;;;;;;;15.25;6.82;;;;;;;-2.18;100.00;95189.16;4967840;28;20043;-76
2023/01/20 09:30:03;;;;;;;13.93;6.97;;;;;;;-2.07;100.00;95187.00;4970215;28;20046;-76
2023/01/20 09:32:29;;;;;;;15.30;6.60;;;;;;;-2.19;100.00;95189.38;4968056;28;20039;-75
2023/01/20 09:34:55;;;;;;;12.63;7.00;;;;;;;-2.34;100.00;95194.69;4969204;28;20108;-76
2023/01/20 09:46:36;;;;;;;12.95;6.45;;;;;;;-2.06;100.00;95199.69;4969231;28;20042;-75
2023/01/20 09:56:02;;;;;;;12.85;5.78;;;;;;;-1.86;100.00;95209.22;4969630;28;20034;-75
2023/01/20 09:58:56;;;;;;;14.48;5.97;;;;;;;-1.82;100.00;95210.41;4935071;28;20067;-76
2023/01/20 10:01:32;;;;;;;14.05;6.40;;;;;;;-1.73;100.00;95209.22;4962323;28;20489;-76
2023/01/20 10:04:23;;;;;;;15.77;6.15;;;;;;;-1.81;100.00;95209.41;4964564;28;20146;-76
2023/01/20 10:06:51;;;;;;;13.65;5.93;;;;;;;-1.76;100.00;95207.03;4979307;28;20046;-76
2023/01/20 10:09:36;;;;;;;15.75;6.63;;;;;;;-1.82;100.00;95210.41;4965663;28;20453;-74
2023/01/20 10:12:08;;;;;;;17.15;6.68;;;;;;;-1.65;100.00;95211.59;4971411;28;20043;-75
2023/01/20 10:14:53;;;;;;;15.95;6.53;;;;;;;-1.48;100.00;95216.34;4968122;28;20508;-75
2023/01/20 10:17:23;;;;;;;13.00;6.15;;;;;;;-1.76;100.00;95215.56;4967936;28;20050;-76
2023/01/20 10:19:57;;;;;;;14.77;6.13;;;;;;;-1.70;100.00;95224.28;4969988;28;20054;-77
2023/01/20 10:22:44;;;;;;;12.15;6.00;;;;;;;-1.54;100.00;95223.09;4971539;28;20041;-74
2023/01/20 10:25:24;;;;;;;13.55;6.47;;;;;;;-1.66;100.00;95219.53;4973823;28;20050;-74
2023/01/20 10:27:57;;;;;;;16.13;7.38;;;;;;;-1.64;100.00;95212.38;4971231;28;20563;-75
2023/01/20 10:30:29;;;;;;;11.15;5.90;;;;;;;-1.75;100.00;95217.16;4973993;28;20034;-75
2023/01/20 10:33:01;;;;;;;12.60;5.90;;;;;;;-1.61;100.00;95211.97;4969919;28;20046;-75
2023/01/20 10:35:32;;;;;;;17.48;6.45;;;;;;;-1.48;100.00;95213.75;5005243;28;20094;-74
2023/01/20 10:37:58;;;;;;;17.98;6.55;;;;;;;-1.47;100.00;95210.19;4993914;28;20030;-74
2023/01/20 10:40:45;;;;;;;11.43;5.78;;;;;;;-1.55;100.00;95210.38;4994961;28;20043;-73
2023/01/20 10:43:14;;;;;;;11.07;5.28;;;;;;;-1.46;100.00;95211.78;4990533;28;20020;-74
2023/01/20 10:45:58;;;;;;;13.25;6.43;;;;;;;-1.42;100.00;95220.72;4990646;28;20077;-76
2023/01/20 10:48:57;;;;;;;12.20;5.35;;;;;;;-1.40;100.00;95218.72;5000778;28;20035;-78
2023/01/20 10:51:38;;;;;;;11.40;5.10;;;;;;;-1.31;100.00;95212.34;4995682;28;20030;-74
2023/01/20 10:54:18;;;;;;;10.48;5.00;;;;;;;-1.24;100.00;95215.69;4997336;28;20030;-75
2023/01/20 10:56:52;;;;;;;12.05;5.35;;;;;;;-1.41;100.00;95211.97;4988653;28;20058;-76
2023/01/20 10:59:52;;;;;;;13.38;5.47;;;;;;;-1.24;100.00;95217.50;4961371;28;20047;-77
2023/01/20 11:02:27;;;;;;;11.88;5.05;;;;;;;-1.30;100.00;95213.91;4967142;28;20055;-76
2023/01/20 11:05:16;;;;;;;14.18;5.20;;;;;;;-1.38;100.00;95211.53;4970134;28;20485;-77
2023/01/20 11:07:45;;;;;;;10.80;5.00;;;;;;;-1.31;100.00;95214.91;4982220;28;20681;-77
2023/01/20 11:10:19;;;;;;;10.93;4.85;;;;;;;-1.40;100.00;95213.56;4972111;28;20043;-75
2023/01/20 11:12:50;;;;;;;9.68;5.35;;;;;;;-1.40;100.00;95218.72;4972924;28;20121;-75
2023/01/20 11:15:31;;;;;;;10.32;5.55;;;;;;;-1.35;100.00;95216.34;4965074;28;20042;-77
2023/01/20 11:18:14;;;;;;;11.60;5.97;;;;;;;-1.37;100.00;95213.16;4962321;28;20070;-78
2023/01/20 11:20:50;;;;;;;11.00;5.70;;;;;;;-1.36;100.00;95219.91;4968490;28;20051;-76
2023/01/20 11:23:20;;;;;;;16.65;6.20;;;;;;;-1.31;100.00;95217.50;4962355;28;20505;-74
2023/01/20 11:25:58;;;;;;;12.05;5.38;;;;;;;-1.42;100.00;95218.91;4983269;28;20433;-74
2023/01/20 11:28:24;;;;;;;7.78;4.78;;;;;;;-1.34;100.00;95217.91;4968285;28;20483;-74
2023/01/20 11:30:53;;;;;;;8.57;4.40;;;;;;;-1.40;100.00;95218.72;4969011;28;20076;-74
2023/01/20 11:33:22;;;;;;;11.02;4.03;;;;;;;-1.24;100.00;95220.84;4970442;28;20049;-72
2023/01/20 11:36:05;;;;;;;11.60;4.28;;;;;;;-1.20;100.00;95223.06;4967610;28;20047;-76
2023/01/20 11:38:40;;;;;;;8.55;4.20;;;;;;;-0.95;100.00;95218.00;4975968;28;20047;-76
2023/01/20 11:41:20;;;;;;;7.93;4.38;;;;;;;-0.98;100.00;95221.78;4975640;28;20065;-75
2023/01/20 11:43:46;;;;;;;8.65;4.30;;;;;;;-0.83;100.00;95218.16;4991371;28;20062;-73
2023/01/20 11:46:36;;;;;;;12.18;5.15;;;;;;;-1.27;100.00;95218.69;4981983;28;20042;-76